createdAt,value
2023-05-15T00:00:20.586Z,100637.53
2023-05-15T00:02:50.104Z,100640.34
2023-05-15T00:05:22.599Z,100645.41
2023-05-15T00:07:52.201Z,100639.09
2023-05-15T00:10:21.705Z,100632.25
2023-05-15T00:12:51.156Z,100633.78
2023-05-15T00:15:20.929Z,100630.56
2023-05-15T00:17:50.436Z,100623.19
2023-05-15T00:20:22.518Z,100622.16
2023-05-15T00:22:52.062Z,100625.63
2023-05-15T00:25:22.026Z,100622.00
2023-05-15T00:27:51.487Z,100619.06
2023-05-15T00:30:20.937Z,100622.28
2023-05-15T00:32:50.468Z,100621.91
2023-05-15T00:35:23.347Z,100614.16
2023-05-15T00:37:53.659Z,100613.41
2023-05-15T00:40:26.680Z,100608.09
2023-05-15T00:42:58.304Z,100614.53
2023-05-15T00:45:29.328Z,100607.63
2023-05-15T00:48:00.486Z,100606.00
2023-05-15T00:50:34.022Z,100618.78
2023-05-15T00:53:03.758Z,100606.72
2023-05-15T00:55:35.013Z,100601.44
2023-05-15T00:58:05.359Z,100596.22
2023-05-15T01:00:36.302Z,100603.09
2023-05-15T01:03:08.268Z,100607.56
2023-05-15T01:05:40.620Z,100602.09
2023-05-15T01:08:19.625Z,100597.97
2023-05-15T01:10:51.039Z,100595.13
2023-05-15T01:13:23.116Z,100604.72
2023-05-15T01:15:53.174Z,100595.50
2023-05-15T01:18:23.011Z,100587.94
2023-05-15T01:21:11.848Z,100598.56
2023-05-15T01:23:54.908Z,100592.28
2023-05-15T01:26:51.931Z,100594.47
2023-05-15T01:29:28.879Z,100589.28
2023-05-15T01:32:06.277Z,100584.88
2023-05-15T01:34:46.148Z,100580.47
2023-05-15T01:37:17.222Z,100578.78
2023-05-15T01:39:50.829Z,100580.81
2023-05-15T01:42:22.271Z,100583.94
2023-05-15T01:44:59.518Z,100581.84
2023-05-15T01:47:36.305Z,100571.81
2023-05-15T01:50:08.081Z,100576.19
2023-05-15T01:52:43.624Z,100570.44
2023-05-15T01:55:15.440Z,100570.94
2023-05-15T01:57:46.169Z,100574.94
2023-05-15T02:00:19.925Z,100571.06
2023-05-15T02:02:52.716Z,100569.72
2023-05-15T02:05:23.444Z,100568.91
2023-05-15T02:07:53.414Z,100564.97
2023-05-15T02:10:25.401Z,100563.09
2023-05-15T02:12:57.799Z,100567.50
2023-05-15T02:15:31.441Z,100561.13
2023-05-15T02:18:01.060Z,100557.78
2023-05-15T02:20:30.723Z,100557.88
2023-05-15T02:23:00.238Z,100554.97
2023-05-15T02:25:37.965Z,100551.78
2023-05-15T02:28:11.123Z,100556.09
2023-05-15T02:30:51.947Z,100554.44
2023-05-15T02:33:32.641Z,100553.63
2023-05-15T02:36:08.182Z,100549.59
2023-05-15T02:38:41.755Z,100549.53
2023-05-15T02:41:12.930Z,100544.59
2023-05-15T02:43:42.869Z,100534.94
2023-05-15T02:46:16.789Z,100538.50
2023-05-15T02:48:46.893Z,100535.31
2023-05-15T02:51:16.808Z,100535.78
2023-05-15T02:53:46.929Z,100530.81
2023-05-15T02:56:16.453Z,100528.00
2023-05-15T02:58:46.078Z,100532.56
2023-05-15T03:01:18.150Z,100525.69
2023-05-15T03:03:47.793Z,100530.09
2023-05-15T03:06:18.772Z,100526.94
2023-05-15T03:08:48.265Z,100524.88
2023-05-15T03:11:19.341Z,100526.31
2023-05-15T03:13:48.782Z,100521.81
2023-05-15T03:16:20.905Z,100518.66
2023-05-15T03:18:50.567Z,100517.78
2023-05-15T03:21:20.468Z,100519.91
2023-05-15T03:23:50.001Z,100529.53
2023-05-15T03:26:19.490Z,100519.03
2023-05-15T03:28:48.968Z,100518.59
2023-05-15T03:31:21.244Z,100522.13
2023-05-15T03:33:51.608Z,100519.22
2023-05-15T03:36:22.624Z,100511.47
2023-05-15T03:38:52.513Z,100502.44
2023-05-15T03:41:22.208Z,100503.91
2023-05-15T03:43:51.650Z,100500.66
2023-05-15T03:46:23.781Z,100505.63
2023-05-15T03:48:54.616Z,100498.72
2023-05-15T03:51:24.287Z,100510.38
2023-05-15T03:53:56.444Z,100501.38
2023-05-15T03:56:26.044Z,100505.63
2023-05-15T03:58:55.893Z,100506.03
2023-05-15T04:01:28.081Z,100516.88
2023-05-15T04:03:57.587Z,100517.69
2023-05-15T04:06:27.225Z,100513.09
2023-05-15T04:08:56.710Z,100503.88
2023-05-15T04:11:26.484Z,100503.88
2023-05-15T04:13:55.940Z,100509.31
2023-05-15T04:16:27.978Z,100512.88
2023-05-15T04:18:57.555Z,100510.94
2023-05-15T04:21:27.136Z,100512.91
2023-05-15T04:23:56.593Z,100502.56
2023-05-15T04:26:26.345Z,100513.75
2023-05-15T04:31:35.365Z,100504.19
2023-05-15T04:34:05.579Z,100513.69
2023-05-15T04:36:35.164Z,100505.78
2023-05-15T04:39:04.745Z,100512.00
2023-05-15T04:41:34.395Z,100506.38
2023-05-15T04:44:03.944Z,100503.63
2023-05-15T04:46:37.713Z,100513.66
2023-05-15T04:49:07.374Z,100508.50
2023-05-15T04:51:36.859Z,100508.34
2023-05-15T04:54:07.001Z,100507.56
2023-05-15T04:56:36.574Z,100509.34
2023-05-15T04:59:06.184Z,100507.19
2023-05-15T05:01:38.258Z,100504.69
2023-05-15T05:04:07.891Z,100507.91
2023-05-15T05:06:37.439Z,100498.84
2023-05-15T05:09:07.392Z,100504.09
2023-05-15T05:11:39.291Z,100500.59
2023-05-15T05:14:08.753Z,100503.09
2023-05-15T05:16:41.127Z,100501.84
2023-05-15T05:19:10.870Z,100496.03
2023-05-15T05:21:40.571Z,100503.03
2023-05-15T05:24:10.246Z,100504.09
2023-05-15T05:26:39.729Z,100498.81
2023-05-15T05:29:09.205Z,100503.81
2023-05-15T05:31:41.629Z,100506.59
2023-05-15T05:34:11.603Z,100514.78
2023-05-15T05:36:41.152Z,100517.66
2023-05-15T05:39:10.914Z,100526.28
2023-05-15T05:41:40.392Z,100515.63
2023-05-15T05:44:09.819Z,100511.69
2023-05-15T05:46:41.856Z,100516.41
2023-05-15T05:49:11.337Z,100512.47
2023-05-15T05:51:41.013Z,100518.38
2023-05-15T05:54:10.493Z,100519.75
2023-05-15T05:56:40.694Z,100519.34
2023-05-15T05:59:10.235Z,100514.03
2023-05-15T06:01:42.669Z,100524.38
2023-05-15T06:04:12.201Z,100515.72
2023-05-15T06:06:41.659Z,100519.75
2023-05-15T06:09:11.119Z,100513.00
2023-05-15T06:11:40.615Z,100515.28
2023-05-15T06:14:10.399Z,100510.16
2023-05-15T06:16:42.463Z,100501.94
2023-05-15T06:19:12.137Z,100509.41
2023-05-15T06:21:41.762Z,100503.44
2023-05-15T06:24:11.634Z,100509.53
2023-05-15T06:26:41.187Z,100517.69
2023-05-15T06:29:10.738Z,100512.66
2023-05-15T06:31:42.933Z,100518.09
2023-05-15T06:34:12.384Z,100515.28
2023-05-15T06:36:42.032Z,100508.31
2023-05-15T06:39:12.307Z,100507.47
2023-05-15T06:41:41.808Z,100503.50
2023-05-15T06:44:15.185Z,100500.53
2023-05-15T06:46:47.310Z,100503.78
2023-05-15T06:49:16.803Z,100507.03
2023-05-15T06:51:46.293Z,100501.75
2023-05-15T06:54:15.761Z,100500.50
2023-05-15T06:56:45.319Z,100499.03
2023-05-15T06:59:14.878Z,100504.22
2023-05-15T07:01:47.011Z,100494.16
2023-05-15T07:04:16.650Z,100501.25
2023-05-15T07:06:46.253Z,100495.56
2023-05-15T07:09:15.918Z,100496.16
2023-05-15T07:11:45.486Z,100504.56
2023-05-15T07:14:15.378Z,100494.91
2023-05-15T07:16:53.876Z,100491.53
2023-05-15T07:19:27.301Z,100498.63
2023-05-15T07:21:56.901Z,100487.25
2023-05-15T07:24:26.628Z,100492.72
2023-05-15T07:26:59.107Z,100488.69
2023-05-15T07:29:29.225Z,100487.19
2023-05-15T07:32:01.503Z,100492.81
2023-05-15T07:34:31.441Z,100484.41
2023-05-15T07:37:01.664Z,100491.50
2023-05-15T07:39:35.772Z,100487.72
2023-05-15T07:42:05.565Z,100483.97
2023-05-15T07:44:35.093Z,100483.50
2023-05-15T07:47:07.974Z,100486.81
2023-05-15T07:49:37.550Z,100482.22
2023-05-15T07:52:07.845Z,100480.91
2023-05-15T07:54:37.435Z,100478.59
2023-05-15T07:57:07.703Z,100481.91
2023-05-15T07:59:37.897Z,100476.84
2023-05-15T08:02:10.181Z,100472.59
2023-05-15T08:04:39.760Z,100472.34
2023-05-15T08:07:09.819Z,100472.59
2023-05-15T08:09:39.297Z,100473.56
2023-05-15T08:12:21.396Z,100472.66
2023-05-15T08:14:52.200Z,100464.47
2023-05-15T08:17:24.877Z,100467.13
2023-05-15T08:19:55.028Z,100462.41
2023-05-15T08:22:24.728Z,100467.66
2023-05-15T08:24:54.142Z,100470.84
2023-05-15T08:27:23.673Z,100464.22
2023-05-15T08:29:54.195Z,100461.72
2023-05-15T08:32:26.872Z,100459.50
2023-05-15T08:34:56.369Z,100454.47
2023-05-15T08:37:25.817Z,100461.13
2023-05-15T08:39:55.258Z,100454.84
2023-05-15T08:42:30.732Z,100455.88
2023-05-15T08:45:02.534Z,100446.38
2023-05-15T08:47:41.285Z,100454.75
2023-05-15T08:50:15.299Z,100449.53
2023-05-15T08:52:47.068Z,100451.00
2023-05-15T08:55:17.783Z,100448.84
2023-05-15T08:57:48.258Z,100441.50
2023-05-15T09:00:21.098Z,100447.63
2023-05-15T09:02:53.526Z,100441.25
2023-05-15T09:05:23.605Z,100443.88
2023-05-15T09:07:58.150Z,100432.97
2023-05-15T09:10:28.026Z,100433.97
2023-05-15T09:13:00.169Z,100434.91
2023-05-15T09:15:30.790Z,100425.31
2023-05-15T09:18:04.937Z,100425.53
2023-05-15T09:20:36.203Z,100423.41
2023-05-15T09:23:07.991Z,100433.16
2023-05-15T09:25:42.772Z,100432.31
2023-05-15T09:28:13.635Z,100430.44
2023-05-15T09:30:45.518Z,100434.63
2023-05-15T09:33:20.069Z,100431.16
2023-05-15T09:35:49.918Z,100440.06
2023-05-15T09:38:19.630Z,100428.78
2023-05-15T09:40:49.619Z,100431.63
2023-05-15T09:43:19.319Z,100425.78
2023-05-15T09:45:50.905Z,100417.88
2023-05-15T09:48:23.826Z,100430.84
2023-05-15T09:50:55.025Z,100425.84
2023-05-15T09:53:25.627Z,100422.75
2023-05-15T09:55:57.621Z,100427.88
2023-05-15T09:58:27.233Z,100415.13
2023-05-15T10:00:57.998Z,100424.03
2023-05-15T10:03:30.172Z,100417.88
2023-05-15T10:06:05.181Z,100417.75
2023-05-15T10:08:37.210Z,100422.25
2023-05-15T10:11:09.573Z,100405.81
2023-05-15T10:13:40.145Z,100416.50
2023-05-15T10:16:11.357Z,100407.00
2023-05-15T10:18:44.290Z,100407.13
2023-05-15T10:21:15.491Z,100415.16
2023-05-15T10:23:46.826Z,100407.44
2023-05-15T10:26:24.381Z,100405.03
2023-05-15T10:28:55.870Z,100406.31
2023-05-15T10:31:27.653Z,100399.41
2023-05-15T10:34:00.693Z,100401.50
2023-05-15T10:36:30.676Z,100401.84
2023-05-15T10:39:02.242Z,100395.78
2023-05-15T10:41:33.053Z,100391.38
2023-05-15T10:44:04.483Z,100389.31
2023-05-15T10:46:38.238Z,100394.66
2023-05-15T10:49:11.804Z,100389.22
2023-05-15T10:51:42.280Z,100388.03
2023-05-15T10:54:13.843Z,100375.81
2023-05-15T10:56:45.034Z,100381.63
2023-05-15T10:59:15.824Z,100370.94
2023-05-15T11:01:45.789Z,100369.50
2023-05-15T11:04:21.216Z,100371.66
2023-05-15T11:06:52.809Z,100373.59
2023-05-15T11:09:39.416Z,100367.41
2023-05-15T11:12:11.869Z,100355.78
2023-05-15T11:14:46.364Z,100356.41
2023-05-15T11:17:17.797Z,100355.13
2023-05-15T11:20:02.967Z,100358.03
2023-05-15T11:22:36.122Z,100360.44
2023-05-15T11:25:09.217Z,100343.91
2023-05-15T11:27:42.309Z,100349.06
2023-05-15T11:30:15.088Z,100335.53
2023-05-15T11:33:03.920Z,100334.53
2023-05-15T11:35:37.867Z,100333.97
2023-05-15T11:38:14.138Z,100339.94
2023-05-15T11:40:49.385Z,100331.03
2023-05-15T11:43:24.806Z,100334.69
2023-05-15T11:45:56.299Z,100339.00
2023-05-15T11:48:27.741Z,100334.78
2023-05-15T11:50:59.890Z,100330.66
2023-05-15T11:53:31.362Z,100331.50
2023-05-15T11:56:03.558Z,100332.34
2023-05-15T11:58:33.173Z,100335.91
2023-05-15T12:01:02.876Z,100325.69
2023-05-15T12:03:37.062Z,100339.03
2023-05-15T12:06:09.483Z,100330.59
2023-05-15T12:08:40.190Z,100331.69
2023-05-15T12:11:09.783Z,100333.34
2023-05-15T12:13:39.417Z,100328.09
2023-05-15T12:16:09.289Z,100326.50
2023-05-15T12:18:39.035Z,100320.66
2023-05-15T12:21:12.652Z,100323.06
2023-05-15T12:23:48.733Z,100321.03
2023-05-15T12:26:27.388Z,100315.47
2023-05-15T12:28:57.766Z,100320.97
2023-05-15T12:31:27.776Z,100318.44
2023-05-15T12:33:58.118Z,100321.69
2023-05-15T12:36:31.225Z,100313.50
2023-05-15T12:39:01.044Z,100313.25
2023-05-15T12:41:31.008Z,100317.66
2023-05-15T12:44:00.754Z,100311.03
2023-05-15T12:46:33.377Z,100323.69
2023-05-15T12:49:04.392Z,100322.47
2023-05-15T12:51:36.690Z,100320.50
2023-05-15T12:54:07.493Z,100314.28
2023-05-15T12:56:37.227Z,100310.19
2023-05-15T12:59:07.246Z,100304.13
2023-05-15T13:01:36.942Z,100313.78
2023-05-15T13:04:06.995Z,100303.53
2023-05-15T13:06:46.971Z,100310.91
2023-05-15T13:09:17.691Z,100309.66
2023-05-15T13:11:47.681Z,100309.13
2023-05-15T13:14:21.212Z,100311.28
2023-05-15T13:16:50.926Z,100299.31
2023-05-15T13:19:21.348Z,100303.41
2023-05-15T13:21:53.590Z,100302.31
2023-05-15T13:24:23.148Z,100297.13
2023-05-15T13:26:53.056Z,100303.03
2023-05-15T13:29:22.674Z,100303.88
2023-05-15T13:31:52.314Z,100296.22
2023-05-15T13:34:21.986Z,100292.50
2023-05-15T13:37:03.278Z,100297.13
2023-05-15T13:39:35.058Z,100296.31
2023-05-15T13:42:04.757Z,100292.69
2023-05-15T13:44:36.156Z,100304.75
2023-05-15T13:47:05.760Z,100300.06
2023-05-15T13:49:35.274Z,100295.94
2023-05-15T13:52:08.075Z,100297.50
2023-05-15T13:54:37.627Z,100305.53
2023-05-15T13:57:07.946Z,100299.38
2023-05-15T13:59:37.451Z,100296.41
2023-05-15T14:02:07.240Z,100286.84
2023-05-15T14:04:36.707Z,100290.75
2023-05-15T14:07:08.834Z,100292.66
2023-05-15T14:09:38.340Z,100300.91
2023-05-15T14:12:09.828Z,100299.19
2023-05-15T14:14:39.304Z,100303.03
2023-05-15T14:17:09.126Z,100304.59
2023-05-15T14:19:38.590Z,100308.09
2023-05-15T14:22:10.881Z,100308.28
2023-05-15T14:24:40.439Z,100318.13
2023-05-15T14:27:10.453Z,100313.81
2023-05-15T14:29:39.945Z,100325.72
2023-05-15T14:32:10.382Z,100329.19
2023-05-15T14:34:39.992Z,100329.03
2023-05-15T14:37:12.100Z,100329.41
2023-05-15T14:39:41.622Z,100312.13
2023-05-15T14:42:11.277Z,100329.97
2023-05-15T14:44:40.864Z,100321.00
2023-05-15T14:47:12.502Z,100312.13
2023-05-15T14:49:42.586Z,100309.59
2023-05-15T14:52:14.701Z,100307.09
2023-05-15T14:54:45.937Z,100310.91
2023-05-15T14:57:20.384Z,100304.50
2023-05-15T14:59:50.032Z,100311.69
2023-05-15T15:02:19.553Z,100300.72
2023-05-15T15:04:49.155Z,100301.03
2023-05-15T15:07:21.222Z,100302.44
2023-05-15T15:09:50.824Z,100300.84
2023-05-15T15:12:20.298Z,100303.38
2023-05-15T15:14:49.878Z,100300.66
2023-05-15T15:17:19.398Z,100298.72
2023-05-15T15:19:48.847Z,100303.16
2023-05-15T15:22:21.012Z,100315.53
2023-05-15T15:24:50.684Z,100308.13
2023-05-15T15:27:20.287Z,100314.69
2023-05-15T15:29:49.961Z,100315.28
2023-05-15T15:32:19.558Z,100310.38
2023-05-15T15:34:49.299Z,100313.56
2023-05-15T15:37:21.443Z,100304.03
2023-05-15T15:39:51.028Z,100311.72
2023-05-15T15:42:20.583Z,100312.94
2023-05-15T15:44:50.079Z,100298.94
2023-05-15T15:47:19.904Z,100308.66
2023-05-15T15:49:49.535Z,100310.41
2023-05-15T15:52:22.286Z,100314.84
2023-05-15T15:54:51.949Z,100312.03
2023-05-15T15:57:22.723Z,100323.81
2023-05-15T15:59:52.380Z,100329.03
2023-05-15T16:02:22.003Z,100341.31
2023-05-15T16:04:52.457Z,100346.50
2023-05-15T16:07:24.452Z,100359.91
2023-05-15T16:10:10.073Z,100393.03
2023-05-15T16:12:42.526Z,100390.00
2023-05-15T16:15:23.261Z,100392.13
2023-05-15T16:17:55.257Z,100385.97
2023-05-15T16:20:25.400Z,100397.97
2023-05-15T16:22:58.085Z,100400.72
2023-05-15T16:25:27.657Z,100393.56
2023-05-15T16:27:57.201Z,100377.66
2023-05-15T16:30:40.126Z,100381.78
2023-05-15T16:33:17.773Z,100368.72
2023-05-15T16:35:47.487Z,100380.00
2023-05-15T16:38:19.539Z,100386.53
2023-05-15T16:40:49.659Z,100377.88
2023-05-15T16:43:20.011Z,100383.38
2023-05-15T16:45:49.491Z,100378.38
2023-05-15T16:48:19.049Z,100372.66
2023-05-15T16:50:48.548Z,100372.53
2023-05-15T16:53:20.883Z,100374.94
2023-05-15T16:55:50.927Z,100375.63
2023-05-15T16:58:20.406Z,100373.72
2023-05-15T17:00:50.374Z,100371.72
2023-05-15T17:03:20.540Z,100374.47
2023-05-15T17:05:50.077Z,100371.81
2023-05-15T17:08:22.153Z,100379.09
2023-05-15T17:10:51.727Z,100369.00
2023-05-15T17:13:21.923Z,100375.31
2023-05-15T17:15:52.406Z,100374.00
2023-05-15T17:18:22.235Z,100361.47
2023-05-15T17:20:51.705Z,100374.09
2023-05-15T17:23:23.793Z,100358.41
2023-05-15T17:25:53.364Z,100369.59
2023-05-15T17:28:22.828Z,100372.56
2023-05-15T17:30:52.491Z,100381.56
2023-05-15T17:33:22.055Z,100383.81
2023-05-15T17:35:52.576Z,100386.56
2023-05-15T17:38:24.597Z,100389.19
2023-05-15T17:40:54.170Z,100389.66
2023-05-15T17:43:23.606Z,100399.44
2023-05-15T17:45:53.084Z,100401.22
2023-05-15T17:48:22.558Z,100406.91
2023-05-15T17:50:52.338Z,100407.97
2023-05-15T17:53:24.794Z,100412.97
2023-05-15T17:55:54.359Z,100416.41
2023-05-15T17:58:23.910Z,100426.81
2023-05-15T18:00:54.451Z,100419.75
2023-05-15T18:03:24.086Z,100431.06
2023-05-15T18:05:53.871Z,100430.91
2023-05-15T18:08:26.089Z,100438.41
2023-05-15T18:10:55.536Z,100443.88
2023-05-15T18:13:25.533Z,100444.34
2023-05-15T18:15:55.037Z,100442.09
2023-05-15T18:18:25.169Z,100440.88
2023-05-15T18:20:54.865Z,100454.94
2023-05-15T18:23:26.972Z,100457.06
2023-05-15T18:25:56.583Z,100456.81
2023-05-15T18:28:26.175Z,100462.84
2023-05-15T18:30:55.689Z,100464.53
2023-05-15T18:33:25.235Z,100473.09
2023-05-15T18:35:55.697Z,100473.25
2023-05-15T18:38:27.776Z,100475.25
2023-05-15T18:40:57.353Z,100485.16
2023-05-15T18:43:26.874Z,100492.72
2023-05-15T18:45:56.954Z,100496.47
2023-05-15T18:48:26.456Z,100494.38
2023-05-15T18:50:56.981Z,100498.28
2023-05-15T18:53:29.050Z,100495.56
2023-05-15T18:55:58.642Z,100497.72
2023-05-15T18:58:28.244Z,100510.63
2023-05-15T19:00:57.818Z,100511.84
2023-05-15T19:03:27.525Z,100512.31
2023-05-15T19:05:56.960Z,100511.41
2023-05-15T19:08:29.036Z,100520.81
2023-05-15T19:11:01.245Z,100520.25
2023-05-15T19:13:33.304Z,100516.72
2023-05-15T19:16:04.308Z,100511.84
2023-05-15T19:18:36.681Z,100518.09
2023-05-15T19:21:06.434Z,100527.91
2023-05-15T19:23:38.556Z,100537.00
2023-05-15T19:26:08.056Z,100540.44
2023-05-15T19:28:37.662Z,100555.19
2023-05-15T19:31:11.794Z,100556.72
2023-05-15T19:33:46.716Z,100556.09
2023-05-15T19:36:16.634Z,100562.88
2023-05-15T19:38:48.673Z,100562.72
2023-05-15T19:41:18.273Z,100561.91
2023-05-15T19:43:50.740Z,100572.47
2023-05-15T19:46:20.763Z,100567.19
2023-05-15T19:48:50.363Z,100576.88
2023-05-15T19:51:19.780Z,100578.09
2023-05-15T19:53:51.851Z,100571.41
2023-05-15T19:56:22.921Z,100578.44
2023-05-15T19:58:52.407Z,100581.34
2023-05-15T20:01:22.150Z,100580.50
2023-05-15T20:03:51.752Z,100586.38
2023-05-15T20:06:21.404Z,100600.03
2023-05-15T20:08:53.473Z,100596.53
2023-05-15T20:11:23.082Z,100599.47
2023-05-15T20:13:52.510Z,100599.44
2023-05-15T20:16:22.079Z,100607.69
2023-05-15T20:18:54.740Z,100614.44
2023-05-15T20:21:24.500Z,100615.69
2023-05-15T20:23:56.630Z,100614.66
2023-05-15T20:26:26.395Z,100620.81
2023-05-15T20:28:56.195Z,100624.56
2023-05-15T20:31:26.246Z,100621.03
2023-05-15T20:33:57.335Z,100628.78
2023-05-15T20:36:28.370Z,100630.59
2023-05-15T20:39:06.380Z,100631.50
2023-05-15T20:41:36.351Z,100637.44
2023-05-15T20:44:06.114Z,100638.69
2023-05-15T20:46:35.661Z,100643.03
2023-05-15T20:49:05.121Z,100641.63
2023-05-15T20:51:34.637Z,100645.16
2023-05-15T20:54:07.042Z,100645.16
2023-05-15T20:56:36.522Z,100648.72
2023-05-15T20:59:06.371Z,100648.72
2023-05-15T21:01:36.242Z,100646.59
2023-05-15T21:04:06.294Z,100646.84
2023-05-15T21:06:35.966Z,100647.22
2023-05-15T21:09:08.785Z,100649.31
2023-05-15T21:11:38.331Z,100643.28
2023-05-15T21:14:08.611Z,100657.72
2023-05-15T21:16:38.121Z,100665.41
2023-05-15T21:19:07.710Z,100665.56
2023-05-15T21:21:38.021Z,100672.72
2023-05-15T21:24:10.449Z,100678.13
2023-05-15T21:26:39.902Z,100669.72
2023-05-15T21:29:09.357Z,100676.38
2023-05-15T21:31:38.871Z,100680.78
2023-05-15T21:34:08.412Z,100674.44
2023-05-15T21:36:37.965Z,100671.53
2023-05-15T21:39:10.783Z,100673.69
2023-05-15T21:41:40.264Z,100665.66
2023-05-15T21:44:09.712Z,100677.75
2023-05-15T21:46:39.210Z,100676.06
2023-05-15T21:49:08.642Z,100680.38
2023-05-15T21:51:38.154Z,100691.28
2023-05-15T21:54:10.246Z,100691.16
2023-05-15T21:56:39.670Z,100700.91
2023-05-15T21:59:10.557Z,100694.63
2023-05-15T22:01:41.114Z,100696.38
2023-05-15T22:04:10.699Z,100687.34
2023-05-15T22:06:40.334Z,100690.13
2023-05-15T22:09:12.709Z,100682.66
2023-05-15T22:11:42.251Z,100684.00
2023-05-15T22:14:11.729Z,100688.13
2023-05-15T22:16:41.276Z,100684.34
2023-05-15T22:19:21.461Z,100683.84
2023-05-15T22:21:58.340Z,100686.44
2023-05-15T22:24:30.465Z,100683.78
2023-05-15T22:27:00.525Z,100694.13
2023-05-15T22:29:29.987Z,100696.25
2023-05-15T22:31:59.618Z,100697.91
2023-05-15T22:34:30.075Z,100703.44
2023-05-15T22:36:59.619Z,100702.56
2023-05-15T22:39:31.805Z,100705.75
2023-05-15T22:42:01.259Z,100709.03
2023-05-15T22:44:31.093Z,100716.22
2023-05-15T22:47:00.619Z,100709.84
2023-05-15T22:49:30.174Z,100709.06
2023-05-15T22:52:01.058Z,100713.91
2023-05-15T22:54:33.244Z,100703.38
2023-05-15T22:57:02.664Z,100711.69
2023-05-15T22:59:32.228Z,100717.50
2023-05-15T23:02:01.699Z,100711.69
2023-05-15T23:04:31.138Z,100715.53
2023-05-15T23:07:00.581Z,100719.56
2023-05-15T23:09:36.365Z,100721.78
2023-05-15T23:12:06.381Z,100726.38
2023-05-15T23:14:35.855Z,100721.69
2023-05-15T23:17:05.728Z,100713.06
2023-05-15T23:19:35.199Z,100723.84
2023-05-15T23:22:05.097Z,100715.66
2023-05-15T23:24:39.522Z,100717.97
2023-05-15T23:27:08.962Z,100719.69
2023-05-15T23:29:38.985Z,100721.09
2023-05-15T23:32:09.866Z,100714.84
2023-05-15T23:34:39.360Z,100719.09
2023-05-15T23:37:08.801Z,100722.28
2023-05-15T23:39:40.860Z,100718.66
2023-05-15T23:42:12.521Z,100716.28
2023-05-15T23:44:42.016Z,100722.53
2023-05-15T23:47:11.585Z,100727.72
2023-05-15T23:49:41.134Z,100726.28
2023-05-15T23:52:10.722Z,100729.84
2023-05-15T23:54:42.772Z,100736.56
2023-05-15T23:57:12.300Z,100736.66
2023-05-15T23:59:41.846Z,100735.94
